Time;durP1;ratioP1;P1;durP2;ratioP2;P2;SDS_P1;SDS_P2;PMS_P1;PMS_P2;Temp;Humidity;BMP_temperature;BMP_pressure;BME280_temperature;BME280_humidity;BME280_pressure;Samples;Min_cycle;Max_cycle;Signal;HPM_P1;HPM_P2
2022/02/10 00:21:17;;;;;;;9.80;4.20;;;;;;;0.66;71.68;100538.20;1730296;81;21016;-75
2022/02/10 00:34:35;;;;;;;17.15;7.78;;;;;;;0.60;71.93;100527.58;1737587;81;21432;-77
2022/02/10 00:42:12;;;;;;;14.33;7.40;;;;;;;0.61;71.95;100521.94;1763790;81;21098;-74
2022/02/10 00:44:38;;;;;;;14.78;7.78;;;;;;;0.62;72.00;100519.27;1744269;81;21043;-76
2022/02/10 00:47:08;;;;;;;14.60;6.60;;;;;;;0.62;72.04;100510.63;1761168;81;21046;-76
2022/02/10 00:49:35;;;;;;;14.53;6.05;;;;;;;0.62;72.08;100515.83;1765029;81;21517;-76
2022/02/10 00:52:04;;;;;;;10.58;5.40;;;;;;;0.63;72.22;100509.27;1767486;81;22458;-75
2022/02/10 00:54:36;;;;;;;10.63;5.05;;;;;;;0.67;72.26;100513.89;1754119;80;21078;-75
2022/02/10 00:57:06;;;;;;;12.05;4.65;;;;;;;0.69;72.30;100506.45;1758830;81;20959;-75
2022/02/10 01:13:47;;;;;;;14.35;5.08;;;;;;;0.74;72.49;100502.38;1762883;81;21546;-74
2022/02/10 01:31:46;;;;;;;15.83;7.28;;;;;;;0.75;72.79;100492.37;1740061;82;21861;-75
2022/02/10 01:34:12;;;;;;;15.15;6.97;;;;;;;0.78;72.80;100497.48;1754831;81;21043;-75
2022/02/10 01:36:39;;;;;;;15.28;7.03;;;;;;;0.79;72.81;100495.27;1758016;81;21010;-75
2022/02/10 01:39:06;;;;;;;15.23;6.60;;;;;;;0.80;72.84;100491.76;1725805;82;21007;-76
2022/02/10 02:03:52;;;;;;;11.38;5.37;;;;;;;0.86;73.36;100479.36;1744612;81;20939;-75
2022/02/10 02:06:25;;;;;;;13.48;5.53;;;;;;;0.87;73.47;100469.83;1764823;81;21002;-75
2022/02/10 02:08:47;;;;;;;13.43;5.70;;;;;;;0.87;73.57;100465.93;1745133;81;20954;-75
2022/02/10 02:11:13;;;;;;;12.10;5.30;;;;;;;0.88;73.64;100460.28;1746899;81;22185;-75
2022/02/10 02:13:42;;;;;;;11.00;5.12;;;;;;;0.88;73.78;100458.97;1756983;81;20928;-75
2022/02/10 02:16:11;;;;;;;13.58;5.20;;;;;;;0.90;73.85;100453.26;1748985;81;21505;-76
2022/02/10 02:18:38;;;;;;;14.33;5.40;;;;;;;0.91;73.94;100452.34;1750715;81;21074;-76
2022/02/10 02:21:04;;;;;;;11.15;5.85;;;;;;;0.93;74.01;100453.98;1753122;80;21098;-76
2022/02/10 02:23:31;;;;;;;13.85;6.37;;;;;;;0.95;74.14;100459.11;1754629;81;22220;-75
2022/02/10 02:26:05;;;;;;;14.18;6.53;;;;;;;0.94;74.27;100456.97;1769782;81;20994;-76
2022/02/10 02:28:27;;;;;;;12.88;5.87;;;;;;;0.96;74.40;100453.84;1733664;82;21034;-76
2022/02/10 02:30:59;;;;;;;11.57;5.30;;;;;;;0.96;74.46;100445.20;1714563;83;20978;-75
2022/02/10 02:38:41;;;;;;;11.15;6.30;;;;;;;1.02;74.73;100449.72;1778439;80;21060;-76
2022/02/10 03:05:32;;;;;;;10.45;5.12;;;;;;;1.10;75.83;100446.83;1775096;80;20985;-74
2022/02/10 03:07:51;;;;;;;9.58;5.00;;;;;;;1.10;75.91;100443.77;1752705;80;20980;-77
2022/02/10 03:10:53;;;;;;;8.85;5.12;;;;;;;1.12;76.04;100442.41;1751629;80;21042;-76
2022/02/10 03:12:57;;;;;;;9.43;5.05;;;;;;;1.12;76.14;100435.90;1741282;81;21008;-76
2022/02/10 03:15:34;;;;;;;11.65;5.47;;;;;;;1.14;76.25;100440.13;1752951;80;22194;-75
2022/02/10 04:02:13;;;;;;;9.13;5.65;;;;;;;1.30;78.93;100407.00;1755094;81;20979;-74
2022/02/10 04:09:44;;;;;;;9.83;5.97;;;;;;;1.36;79.38;100403.70;1753962;81;22244;-75
2022/02/10 04:12:20;;;;;;;10.32;5.70;;;;;;;1.37;79.52;100402.80;1750455;81;21049;-75
2022/02/10 04:19:49;;;;;;;9.45;5.95;;;;;;;1.44;79.93;100399.00;1700223;82;21010;-76
2022/02/10 04:22:11;;;;;;;9.30;6.00;;;;;;;1.48;80.06;100401.05;1732802;81;22609;-75
2022/02/10 04:24:49;;;;;;;9.58;6.30;;;;;;;1.52;80.20;100398.70;1700647;83;21024;-76
2022/02/10 04:27:12;;;;;;;9.78;6.03;;;;;;;1.56;80.29;100397.67;1742861;81;21001;-76
2022/02/10 04:29:48;;;;;;;7.37;5.50;;;;;;;1.61;80.41;100395.70;1739122;81;20973;-76
2022/02/10 04:32:21;;;;;;;6.78;5.17;;;;;;;1.67;80.55;100401.12;1730137;81;21370;-76
2022/02/10 04:38:02;;;;;;;8.13;5.72;;;;;;;1.79;80.89;100400.59;1745086;81;21090;-75
2022/02/10 04:53:18;;;;;;;10.88;7.33;;;;;;;2.07;81.65;100392.43;1738796;81;21060;-78
2022/02/10 05:01:57;;;;;;;12.53;8.83;;;;;;;2.49;82.30;100389.64;1756308;81;21840;-75
2022/02/10 05:20:03;;;;;;;10.20;8.03;;;;;;;2.75;82.68;100401.95;1734214;81;21421;-83
2022/02/10 05:38:07;;;;;;;10.58;8.65;;;;;;;2.95;83.05;100407.53;1767709;80;21005;-84
2022/02/10 05:45:40;;;;;;;10.93;9.53;;;;;;;3.06;83.34;100397.42;1750034;81;20990;-83
2022/02/10 05:53:37;;;;;;;11.35;10.05;;;;;;;3.19;83.40;100406.84;1681883;82;21784;-84
2022/02/10 05:58:33;;;;;;;11.65;10.00;;;;;;;3.27;83.47;100402.06;1708385;81;20985;-80
2022/02/10 06:52:25;;;;;;;14.65;12.45;;;;;;;4.12;82.73;100406.03;1761680;80;20960;-79
2022/02/10 06:55:11;;;;;;;14.20;12.47;;;;;;;4.17;82.60;100411.41;1738111;81;20953;-80
2022/02/10 07:11:04;;;;;;;14.03;12.43;;;;;;;4.44;81.61;100409.55;1639748;86;21147;-79
2022/02/10 07:48:28;;;;;;;15.58;12.53;;;;;;;4.65;79.24;100420.66;1741072;80;21028;-78
2022/02/10 09:23:31;;;;;;;15.35;12.07;;;;;;;5.72;76.45;100472.64;1749741;82;21001;-76
2022/02/10 09:58:01;;;;;;;11.38;9.65;;;;;;;6.69;73.27;100480.87;1770484;81;21166;-79
2022/02/10 10:00:29;;;;;;;10.30;9.03;;;;;;;6.88;72.64;100474.02;1765474;81;21132;-77
2022/02/10 10:03:19;;;;;;;10.53;9.30;;;;;;;6.97;71.72;100473.44;1739829;82;20975;-78
2022/02/10 10:05:41;;;;;;;11.13;9.17;;;;;;;6.96;70.62;100470.91;1756286;81;20951;-78
2022/02/10 10:26:57;;;;;;;9.38;7.95;;;;;;;6.80;69.42;100487.61;1771939;80;21082;-75
2022/02/10 10:52:28;;;;;;;10.23;8.60;;;;;;;6.68;69.13;100475.72;1747482;81;21437;-76
2022/02/10 10:54:57;;;;;;;12.07;9.60;;;;;;;6.63;69.29;100481.23;1731949;81;20981;-73
2022/02/10 10:57:26;;;;;;;11.20;10.00;;;;;;;6.58;69.51;100484.16;1777089;80;20997;-72
2022/02/10 11:36:40;;;;;;;11.12;9.93;;;;;;;6.46;70.74;100456.02;1771520;81;20947;-80
2022/02/10 12:39:26;;;;;;;9.48;8.48;;;;;;;6.41;71.37;100470.37;1748125;81;21006;-79
2022/02/10 13:23:25;;;;;;;12.10;9.25;;;;;;;6.43;70.77;100507.38;1725711;83;21911;-76
2022/02/10 13:29:42;;;;;;;15.35;10.23;;;;;;;6.44;70.79;100510.38;1665292;86;21451;-78
2022/02/10 14:16:00;;;;;;;11.43;10.23;;;;;;;6.33;70.36;100539.50;1744677;81;21500;-81
2022/02/10 14:18:28;;;;;;;11.20;9.13;;;;;;;6.31;70.38;100538.28;1741971;82;21864;-80
2022/02/10 14:26:16;;;;;;;15.03;12.95;;;;;;;6.29;70.37;100539.69;1743315;82;21018;-83
2022/02/10 14:28:34;;;;;;;17.77;13.72;;;;;;;6.27;70.33;100538.95;1741495;82;21030;-70
2022/02/10 14:31:04;;;;;;;15.98;12.85;;;;;;;6.25;70.33;100534.23;1743250;82;23447;-73
2022/02/10 14:33:34;;;;;;;13.58;10.90;;;;;;;6.25;70.30;100538.63;1767061;80;20987;-80
2022/02/10 14:38:48;;;;;;;11.27;8.70;;;;;;;6.20;70.26;100539.39;1714696;83;20979;-84
2022/02/10 15:52:46;;;;;;;29.00;23.40;;;;;;;5.71;70.33;100557.44;1727475;83;22515;-74
2022/02/10 16:18:50;;;;;;;22.02;16.57;;;;;;;5.46;71.05;100567.58;1727652;83;21814;-71
2022/02/10 16:21:37;;;;;;;19.95;14.63;;;;;;;5.41;71.19;100561.77;1736831;81;20991;-70
2022/02/10 16:24:03;;;;;;;21.52;14.70;;;;;;;5.38;71.33;100573.23;1728103;81;21047;-70
2022/02/10 16:26:39;;;;;;;19.10;13.70;;;;;;;5.35;71.50;100568.17;1732436;81;21035;-83
2022/02/10 16:28:56;;;;;;;17.73;13.68;;;;;;;5.31;71.58;100565.36;1701799;83;20949;-69
2022/02/10 16:31:23;;;;;;;17.95;13.22;;;;;;;5.30;71.72;100574.11;1742513;81;21876;-71
2022/02/10 16:33:52;;;;;;;17.50;13.65;;;;;;;5.29;71.80;100569.80;1744747;82;20973;-72
2022/02/10 16:36:18;;;;;;;22.37;18.02;;;;;;;5.30;71.87;100571.95;1752862;82;21001;-71
2022/02/10 16:38:46;;;;;;;18.80;15.35;;;;;;;5.28;71.94;100573.36;1752922;82;21012;-73
2022/02/10 16:41:13;;;;;;;20.17;16.17;;;;;;;5.26;72.00;100572.59;1752906;82;20992;-74
2022/02/10 16:43:41;;;;;;;20.27;16.35;;;;;;;5.26;72.05;100574.38;1753208;81;22440;-71
2022/02/10 16:46:09;;;;;;;27.17;18.98;;;;;;;5.23;72.06;100574.09;1752706;82;21020;-72
2022/02/10 16:48:37;;;;;;;21.85;16.00;;;;;;;5.22;72.14;100576.80;1734615;82;20968;-71
2022/02/10 16:51:08;;;;;;;21.68;16.37;;;;;;;5.21;72.22;100577.69;1729870;82;20977;-70
2022/02/10 16:53:34;;;;;;;19.15;14.10;;;;;;;5.19;72.30;100585.63;1752588;82;20949;-70
2022/02/10 16:56:11;;;;;;;17.87;12.73;;;;;;;5.20;72.35;100583.86;1752812;82;21899;-70
2022/02/10 16:58:37;;;;;;;14.55;11.90;;;;;;;5.18;72.35;100581.33;1750107;81;21542;-75
2022/02/10 17:19:05;;;;;;;19.00;13.83;;;;;;;5.20;72.61;100574.70;1741466;81;21559;-77
2022/02/10 17:29:28;;;;;;;14.95;11.73;;;;;;;5.01;72.44;100576.14;1751801;81;21061;-75
2022/02/10 17:31:48;;;;;;;18.07;13.60;;;;;;;4.96;72.39;100573.78;1748908;81;21013;-74
2022/02/10 17:34:23;;;;;;;17.25;13.35;;;;;;;4.89;72.39;100581.56;1727420;81;21829;-82
2022/02/10 17:37:07;;;;;;;15.05;11.95;;;;;;;4.85;72.41;100574.35;1722600;83;21083;-80
2022/02/10 17:53:04;;;;;;;22.37;17.70;;;;;;;4.65;72.46;100569.78;1727454;81;21038;-78
2022/02/10 17:55:30;;;;;;;22.65;16.75;;;;;;;4.60;72.50;100568.69;1724588;83;21519;-80
2022/02/10 17:57:57;;;;;;;27.70;20.37;;;;;;;4.56;72.51;100571.09;1734645;81;21068;-80
2022/02/10 18:00:25;;;;;;;48.58;28.75;;;;;;;4.53;72.56;100576.00;1753573;81;22633;-78
2022/02/10 18:02:58;;;;;;;53.65;30.72;;;;;;;4.50;72.59;100569.63;1753545;81;21023;-82
2022/02/10 18:08:11;;;;;;;63.23;30.95;;;;;;;4.48;72.61;100575.41;1754512;81;20984;-80
2022/02/10 18:15:46;;;;;;;69.80;31.67;;;;;;;4.43;72.84;100581.31;1729460;81;22045;-78
2022/02/10 18:18:22;;;;;;;69.90;30.68;;;;;;;4.43;72.82;100583.09;1753653;81;21024;-76
2022/02/10 18:20:48;;;;;;;49.80;25.15;;;;;;;4.43;72.84;100585.70;1753039;81;21082;-80
2022/02/10 18:23:16;;;;;;;59.58;31.87;;;;;;;4.41;72.87;100583.17;1747147;81;21067;-78
2022/02/10 19:05:43;;;;;;;27.15;18.48;;;;;;;3.77;73.39;100569.37;1744070;82;21891;-76
2022/02/10 19:08:20;;;;;;;22.77;16.57;;;;;;;3.71;73.47;100569.66;1750445;81;21000;-79
2022/02/10 19:10:46;;;;;;;23.25;16.15;;;;;;;3.66;73.64;100569.02;1699890;83;21012;-74
2022/02/10 19:13:10;;;;;;;21.40;15.30;;;;;;;3.59;73.81;100564.56;1717592;81;21041;-75
2022/02/10 19:15:36;;;;;;;22.45;15.95;;;;;;;3.56;73.92;100563.84;1681774;84;21133;-76
2022/02/10 19:18:05;;;;;;;18.87;13.62;;;;;;;3.52;74.12;100574.91;1687640;82;22347;-74
2022/02/10 19:20:33;;;;;;;20.32;15.05;;;;;;;3.53;74.33;100571.83;1686516;83;21396;-74
2022/02/10 19:23:03;;;;;;;22.00;16.52;;;;;;;3.53;74.51;100573.14;1668088;85;21424;-75
2022/02/10 19:25:30;;;;;;;39.83;24.70;;;;;;;3.52;74.90;100570.14;1672006;84;21021;-77
2022/02/10 19:27:57;;;;;;;38.58;25.40;;;;;;;3.52;75.18;100574.06;1672758;84;20987;-74
2022/02/10 19:30:25;;;;;;;27.20;18.27;;;;;;;3.57;75.45;100566.84;1700137;83;21851;-75
2022/02/10 19:32:58;;;;;;;23.95;16.37;;;;;;;3.59;75.60;100562.41;1697387;84;21022;-72
2022/02/10 19:35:25;;;;;;;25.85;18.75;;;;;;;3.63;75.76;100573.09;1698542;83;21034;-75
2022/02/10 19:37:57;;;;;;;19.87;15.08;;;;;;;3.67;75.83;100572.05;1689735;84;21086;-76
2022/02/10 19:40:26;;;;;;;19.00;14.95;;;;;;;3.69;76.05;100567.13;1704091;84;20971;-77
2022/02/10 19:42:54;;;;;;;18.12;14.10;;;;;;;3.72;76.05;100572.19;1672205;84;21850;-74
2022/02/10 19:45:21;;;;;;;17.92;14.18;;;;;;;3.73;76.08;100571.73;1680560;84;21035;-73
2022/02/10 19:47:48;;;;;;;16.52;13.80;;;;;;;3.73;76.07;100574.34;1675709;84;21069;-73
2022/02/10 19:50:17;;;;;;;16.67;13.68;;;;;;;3.72;76.22;100578.72;1679452;84;21027;-72
2022/02/10 19:52:48;;;;;;;17.40;14.30;;;;;;;3.72;76.28;100574.80;1683951;84;21008;-74
2022/02/10 19:55:19;;;;;;;17.32;14.28;;;;;;;3.71;76.37;100578.34;1679435;84;21870;-75
2022/02/10 19:57:43;;;;;;;18.23;14.03;;;;;;;3.70;76.36;100570.13;1696036;84;20991;-71
2022/02/10 20:00:16;;;;;;;17.75;13.88;;;;;;;3.69;76.41;100569.73;1696785;84;21128;-72
2022/02/10 20:02:41;;;;;;;17.50;14.43;;;;;;;3.68;76.52;100568.51;1677716;84;21117;-80
2022/02/10 20:05:08;;;;;;;18.52;15.35;;;;;;;3.67;76.53;100567.66;1672293;84;21126;-76
2022/02/10 20:07:40;;;;;;;22.22;16.60;;;;;;;3.67;76.56;100566.81;1692194;84;21865;-73
2022/02/10 20:10:08;;;;;;;37.42;25.10;;;;;;;3.66;76.58;100561.18;1692428;84;20984;-71
2022/02/10 20:12:41;;;;;;;36.58;26.17;;;;;;;3.65;76.55;100556.88;1676461;84;21039;-72
2022/02/10 20:15:10;;;;;;;29.60;22.02;;;;;;;3.61;76.54;100557.50;1700783;83;21458;-70
2022/02/10 20:17:35;;;;;;;28.30;21.42;;;;;;;3.59;76.53;100554.12;1715837;83;21105;-72
2022/02/10 20:20:03;;;;;;;24.75;20.20;;;;;;;3.59;76.50;100564.56;1705018;83;21829;-74
2022/02/10 20:22:35;;;;;;;25.17;20.00;;;;;;;3.56;76.40;100569.06;1690503;83;20926;-72
2022/02/10 20:24:59;;;;;;;21.15;16.82;;;;;;;3.52;76.30;100570.14;1696158;83;21072;-74
2022/02/10 20:27:26;;;;;;;21.48;16.95;;;;;;;3.45;76.18;100567.81;1694112;83;21002;-78
2022/02/10 20:29:53;;;;;;;20.88;16.17;;;;;;;3.35;76.01;100575.69;1713578;83;21109;-76
2022/02/10 20:32:20;;;;;;;21.00;15.48;;;;;;;3.24;75.91;100566.66;1692182;83;21796;-78
2022/02/10 20:34:47;;;;;;;21.68;16.20;;;;;;;3.13;75.96;100561.94;1720115;81;20990;-73
2022/02/10 20:37:14;;;;;;;21.30;16.95;;;;;;;3.04;76.03;100554.53;1694602;83;21446;-75
2022/02/10 20:39:41;;;;;;;22.42;17.90;;;;;;;2.99;76.04;100564.31;1692580;83;21493;-76
2022/02/10 20:42:14;;;;;;;23.90;18.50;;;;;;;2.94;76.08;100569.75;1700332;83;21077;-77
2022/02/10 20:44:41;;;;;;;24.05;17.95;;;;;;;2.91;76.07;100564.67;1695114;83;23281;-74
2022/02/10 20:47:05;;;;;;;22.15;17.52;;;;;;;2.87;76.08;100561.80;1698767;83;21457;-72
2022/02/10 20:49:32;;;;;;;23.38;18.32;;;;;;;2.86;76.09;100560.11;1708587;83;21066;-74
2022/02/10 20:51:58;;;;;;;22.58;17.73;;;;;;;2.81;76.10;100552.96;1696253;83;21073;-73
2022/02/10 20:54:26;;;;;;;21.45;17.45;;;;;;;2.74;76.16;100560.66;1709081;83;21457;-72
2022/02/10 20:56:53;;;;;;;21.57;17.10;;;;;;;2.68;76.28;100557.85;1711075;83;21810;-72
2022/02/10 20:59:30;;;;;;;20.75;17.07;;;;;;;2.62;76.35;100552.92;1699119;83;20981;-75
2022/02/10 21:01:57;;;;;;;25.20;19.05;;;;;;;2.57;76.40;100556.17;1712892;83;21074;-76
2022/02/10 21:04:18;;;;;;;23.87;19.25;;;;;;;2.51;76.47;100548.61;1692844;83;21062;-74
2022/02/10 21:06:57;;;;;;;45.83;29.20;;;;;;;2.49;76.58;100554.34;1692485;83;21465;-75
2022/02/10 21:09:32;;;;;;;82.67;47.85;;;;;;;2.46;76.61;100548.82;1699567;83;22265;-81
2022/02/10 21:11:43;;;;;;;40.33;26.68;;;;;;;2.45;76.68;100550.20;1700640;83;20995;-81
2022/02/10 21:14:17;;;;;;;35.68;23.98;;;;;;;2.43;76.75;100545.52;1703779;83;21026;-77
2022/02/10 21:16:41;;;;;;;34.13;21.80;;;;;;;2.40;76.86;100545.16;1700776;83;21049;-74
2022/02/10 21:19:07;;;;;;;63.90;35.03;;;;;;;2.39;76.91;100542.63;1688999;84;20982;-73
2022/02/10 21:21:34;;;;;;;113.08;53.75;;;;;;;2.38;76.97;100547.00;1699469;83;21766;-76
2022/02/10 21:24:07;;;;;;;121.90;59.70;;;;;;;2.37;76.97;100547.91;1721826;81;21033;-73
2022/02/10 21:26:33;;;;;;;103.32;52.60;;;;;;;2.35;77.00;100551.50;1711521;83;21520;-73
2022/02/10 21:29:03;;;;;;;98.27;53.00;;;;;;;2.34;77.07;100543.30;1704948;83;20975;-73
2022/02/10 21:31:29;;;;;;;107.50;58.58;;;;;;;2.33;77.15;100541.15;1707332;83;21524;-72
2022/02/10 21:34:14;;;;;;;94.22;51.18;;;;;;;2.33;77.23;100546.36;1695558;83;22865;-71
2022/02/10 21:42:38;;;;;;;59.23;38.28;;;;;;;2.30;77.22;100542.56;1707870;83;21038;-70
2022/02/10 21:45:11;;;;;;;51.50;36.17;;;;;;;2.27;77.27;100537.48;1720511;83;21006;-73
2022/02/10 21:53:24;;;;;;;24.77;18.45;;;;;;;2.19;77.29;100533.05;1723554;83;21121;-71
2022/02/10 22:03:31;;;;;;;23.83;18.57;;;;;;;2.09;77.54;100522.17;1674052;85;21409;-75
2022/02/10 22:11:00;;;;;;;23.57;16.97;;;;;;;2.13;77.78;100513.79;1625431;85;21041;-71
2022/02/10 22:18:58;;;;;;;22.17;17.82;;;;;;;2.23;78.08;100508.58;1697216;83;21047;-69
2022/02/10 22:21:28;;;;;;;23.87;19.37;;;;;;;2.26;78.18;100500.16;1689556;83;21028;-70
2022/02/10 22:23:50;;;;;;;28.70;21.97;;;;;;;2.32;78.24;100503.39;1685082;84;21018;-72
2022/02/10 22:26:23;;;;;;;29.90;23.27;;;;;;;2.36;78.28;100497.16;1710386;83;22510;-70
2022/02/10 22:29:04;;;;;;;25.20;19.77;;;;;;;2.39;78.35;100493.95;1696783;83;21038;-69
2022/02/10 22:34:11;;;;;;;21.35;17.80;;;;;;;2.44;78.41;100492.00;1706322;83;21398;-72
2022/02/10 22:36:34;;;;;;;;;;;;;;;2.45;78.47;100487.17;1690605;84;21019;-72
2022/02/10 22:39:05;;;;;;;19.70;15.58;;;;;;;2.48;78.47;100486.18;1643141;84;22548;-71
2022/02/10 22:41:34;;;;;;;20.80;16.30;;;;;;;2.45;78.51;100485.86;1666453;84;21394;-72
2022/02/10 22:44:05;;;;;;;22.27;17.45;;;;;;;2.44;78.60;100483.33;1704346;83;21039;-74
2022/02/10 22:46:35;;;;;;;23.55;18.90;;;;;;;2.43;78.71;100484.25;1667672;83;22299;-70
2022/02/10 22:49:03;;;;;;;23.98;18.87;;;;;;;2.42;78.84;100487.77;1701996;83;21023;-71
2022/02/10 22:51:32;;;;;;;24.77;18.35;;;;;;;2.41;78.93;100486.90;1663421;84;22644;-71
2022/02/10 22:53:59;;;;;;;23.00;17.70;;;;;;;2.42;79.00;100491.22;1697138;83;21031;-70
2022/02/10 22:56:30;;;;;;;23.83;18.75;;;;;;;2.42;79.01;100487.77;1695557;83;20956;-70
2022/02/10 22:59:01;;;;;;;25.57;19.52;;;;;;;2.43;79.04;100482.95;1716845;81;20996;-72
2022/02/10 23:01:28;;;;;;;27.70;20.90;;;;;;;2.41;79.10;100480.84;1697697;83;21145;-73
2022/02/10 23:03:56;;;;;;;28.65;20.92;;;;;;;2.39;79.22;100477.46;1685287;84;22268;-73
2022/02/10 23:06:26;;;;;;;26.68;21.17;;;;;;;2.38;79.29;100482.28;1643087;86;21357;-72
2022/02/10 23:08:55;;;;;;;29.18;22.35;;;;;;;2.39;79.35;100483.97;1671927;83;21008;-71
2022/02/10 23:11:28;;;;;;;30.45;22.40;;;;;;;2.39;79.37;100490.49;1645627;84;20985;-72
2022/02/10 23:13:58;;;;;;;26.27;20.77;;;;;;;2.39;79.37;100493.95;1676656;84;21099;-71
2022/02/10 23:16:26;;;;;;;29.72;22.07;;;;;;;2.41;79.42;100499.09;1675914;84;21587;-71
2022/02/10 23:18:53;;;;;;;27.42;21.15;;;;;;;2.40;79.43;100500.00;1677594;84;21514;-71
2022/02/10 23:21:20;;;;;;;26.17;19.57;;;;;;;2.38;79.49;100488.80;1692717;83;21494;-71
2022/02/10 23:23:49;;;;;;;29.07;21.55;;;;;;;2.38;79.53;100489.64;1700974;83;20994;-71
2022/02/10 23:26:18;;;;;;;26.17;21.40;;;;;;;2.38;79.55;100490.95;1711684;83;21017;-71
2022/02/10 23:28:48;;;;;;;26.87;20.85;;;;;;;2.37;79.58;100481.44;1693132;82;21831;-71
2022/02/10 23:31:17;;;;;;;25.45;19.92;;;;;;;2.37;79.59;100474.92;1674462;83;21069;-71
2022/02/10 23:33:49;;;;;;;27.42;20.40;;;;;;;2.39;79.64;100470.94;1708468;83;21070;-72
2022/02/10 23:38:52;;;;;;;26.17;19.92;;;;;;;2.41;79.68;100463.89;1706387;83;21078;-72
2022/02/10 23:44:12;;;;;;;26.77;20.85;;;;;;;2.41;79.71;100467.34;1712323;83;21024;-71
2022/02/10 23:46:33;;;;;;;27.22;21.12;;;;;;;2.41;79.71;100469.95;1691662;83;21498;-72
2022/02/10 23:49:00;;;;;;;25.50;20.00;;;;;;;2.42;79.74;100471.67;1699931;83;21483;-71
2022/02/10 23:51:32;;;;;;;26.15;20.88;;;;;;;2.44;79.72;100470.30;1697979;83;20987;-72
2022/02/10 23:53:55;;;;;;;26.05;20.02;;;;;;;2.45;79.72;100465.01;1702434;83;21833;-72
2022/02/10 23:56:26;;;;;;;26.73;20.75;;;;;;;2.46;79.70;100461.48;1703836;83;21525;-72
2022/02/10 23:59:05;;;;;;;25.57;20.20;;;;;;;2.46;79.70;100469.31;1704904;83;21006;-72
